Time;durP1;ratioP1;P1;durP2;ratioP2;P2;SDS_P1;SDS_P2;PMS_P1;PMS_P2;Temp;Humidity;BMP_temperature;BMP_pressure;BME280_temperature;BME280_humidity;BME280_pressure;Samples;Min_cycle;Max_cycle;Signal;HPM_P1;HPM_P2
2023/11/03 00:01:06;;;;;;;3.40;2.05;;;6.90;99.90;;;;;;5031985;28;20089;-64
2023/11/03 00:03:38;;;;;;;3.40;1.90;;;6.90;99.90;;;;;;5026788;28;20410;-64
2023/11/03 00:06:05;;;;;;;3.30;2.03;;;6.90;99.90;;;;;;5037946;28;20045;-64
2023/11/03 00:08:32;;;;;;;3.22;2.17;;;6.80;99.90;;;;;;5033424;28;20060;-64
2023/11/03 00:11:04;;;;;;;2.50;1.80;;;6.90;99.90;;;;;;5031967;28;20136;-64
2023/11/03 00:13:36;;;;;;;3.72;2.60;;;6.90;99.90;;;;;;5033106;28;20069;-64
2023/11/03 00:16:08;;;;;;;12.80;3.97;;;6.90;99.90;;;;;;5031124;28;20740;-64
2023/11/03 00:18:41;;;;;;;2.47;2.10;;;6.90;99.90;;;;;;5034727;28;20037;-64
2023/11/03 00:21:12;;;;;;;6.15;2.60;;;6.80;99.90;;;;;;5032404;28;20046;-64
2023/11/03 00:23:44;;;;;;;2.92;2.17;;;6.80;99.90;;;;;;5027778;28;20533;-64
2023/11/03 00:26:11;;;;;;;2.08;1.88;;;6.80;99.90;;;;;;5028286;28;20137;-64
2023/11/03 00:28:41;;;;;;;3.78;1.70;;;6.80;99.90;;;;;;5025845;28;20041;-64
2023/11/03 00:31:07;;;;;;;2.80;1.90;;;6.80;99.90;;;;;;5031480;28;20485;-64
2023/11/03 00:33:39;;;;;;;4.13;2.20;;;6.80;99.90;;;;;;5037366;28;20076;-64
2023/11/03 00:36:14;;;;;;;4.75;2.47;;;6.70;99.90;;;;;;5010340;28;20056;-64
2023/11/03 00:38:46;;;;;;;5.38;2.75;;;6.70;99.90;;;;;;5046541;28;20069;-64
2023/11/03 00:41:18;;;;;;;2.50;2.10;;;6.70;99.90;;;;;;5039484;28;20046;-64
2023/11/03 00:43:45;;;;;;;3.00;2.00;;;6.70;99.90;;;;;;5037331;28;20128;-64
2023/11/03 00:46:17;;;;;;;3.55;2.25;;;6.60;99.90;;;;;;5034561;28;20414;-64
2023/11/03 00:48:49;;;;;;;4.63;1.92;;;6.60;99.90;;;;;;5037055;28;20045;-64
2023/11/03 00:51:16;;;;;;;3.30;2.10;;;6.60;99.90;;;;;;5029206;28;20038;-64
2023/11/03 00:53:48;;;;;;;3.25;2.25;;;6.60;99.90;;;;;;5033462;28;20065;-64
2023/11/03 00:56:20;;;;;;;2.95;2.08;;;6.60;99.90;;;;;;5023229;28;20133;-64
2023/11/03 00:58:52;;;;;;;2.60;1.70;;;6.60;99.90;;;;;;5027407;28;20046;-64
2023/11/03 01:01:24;;;;;;;3.90;1.70;;;6.70;99.90;;;;;;5032282;28;20056;-64
2023/11/03 01:03:56;;;;;;;2.60;1.98;;;6.70;99.90;;;;;;5038075;28;20035;-64
2023/11/03 01:06:28;;;;;;;3.10;1.70;;;6.70;99.90;;;;;;5036803;28;20382;-64
2023/11/03 01:09:00;;;;;;;3.22;1.88;;;6.70;99.90;;;;;;5024167;28;20095;-64
2023/11/03 01:11:32;;;;;;;3.35;2.00;;;6.70;99.90;;;;;;5040416;28;20045;-64
2023/11/03 01:13:59;;;;;;;4.85;2.13;;;6.70;99.90;;;;;;5040152;28;20131;-64
2023/11/03 01:16:33;;;;;;;2.08;1.50;;;6.70;99.90;;;;;;5034742;28;20056;-64
2023/11/03 01:19:05;;;;;;;4.22;1.83;;;6.70;99.90;;;;;;5033399;28;20062;-64
2023/11/03 01:21:43;;;;;;;2.95;1.20;;;6.70;99.90;;;;;;5047813;28;20513;-65
2023/11/03 01:24:14;;;;;;;3.83;1.60;;;6.70;99.90;;;;;;5048856;28;20049;-64
2023/11/03 01:26:46;;;;;;;2.20;1.58;;;6.70;99.90;;;;;;5051136;28;20055;-64
2023/11/03 01:29:18;;;;;;;2.80;1.30;;;6.70;99.90;;;;;;5051023;28;20044;-64
2023/11/03 01:31:50;;;;;;;2.50;1.70;;;6.70;99.90;;;;;;5029689;28;20067;-64
2023/11/03 01:34:22;;;;;;;6.07;1.90;;;6.70;99.90;;;;;;5020395;28;20056;-64
2023/11/03 01:36:53;;;;;;;2.40;1.20;;;6.70;99.90;;;;;;5049700;28;20391;-64
2023/11/03 01:39:25;;;;;;;4.82;1.60;;;6.70;99.90;;;;;;5026841;28;20045;-65
2023/11/03 01:41:58;;;;;;;4.78;1.58;;;6.70;99.90;;;;;;5044602;28;20045;-64
2023/11/03 01:44:32;;;;;;;3.60;1.90;;;6.70;99.90;;;;;;5042110;28;20033;-64
2023/11/03 01:47:05;;;;;;;2.33;1.83;;;6.70;99.90;;;;;;5037178;28;20464;-64
2023/11/03 01:49:37;;;;;;;2.85;2.20;;;6.70;99.90;;;;;;5036735;28;20033;-64
2023/11/03 01:52:11;;;;;;;3.50;2.80;;;6.60;99.90;;;;;;5021114;28;20037;-64
2023/11/03 01:54:43;;;;;;;2.78;2.20;;;6.60;99.90;;;;;;5044350;28;20037;-64
2023/11/03 01:57:14;;;;;;;2.72;2.10;;;6.60;99.90;;;;;;5033486;28;20125;-64
2023/11/03 01:59:51;;;;;;;5.00;2.20;;;6.50;99.90;;;;;;5050683;28;20696;-64
2023/11/03 02:02:24;;;;;;;7.47;2.70;;;6.40;99.90;;;;;;5048116;28;20046;-65
2023/11/03 02:04:56;;;;;;;5.55;2.58;;;6.40;99.90;;;;;;5027700;28;20066;-64
2023/11/03 02:07:28;;;;;;;4.72;2.40;;;6.40;99.90;;;;;;5023559;28;20099;-64
2023/11/03 02:10:00;;;;;;;3.65;2.13;;;6.40;99.90;;;;;;5048264;28;20041;-64
2023/11/03 02:12:33;;;;;;;2.65;1.83;;;6.40;99.90;;;;;;5039845;28;20103;-64
2023/11/03 02:15:05;;;;;;;6.60;1.95;;;6.40;99.90;;;;;;5038420;28;20651;-64
2023/11/03 02:17:39;;;;;;;7.10;2.13;;;6.40;99.90;;;;;;5049206;28;20118;-64
2023/11/03 02:20:11;;;;;;;3.00;2.30;;;6.30;99.90;;;;;;5034122;28;20042;-64
2023/11/03 02:22:42;;;;;;;2.92;1.65;;;6.30;99.90;;;;;;5039193;28;20041;-65
2023/11/03 02:25:14;;;;;;;3.25;1.50;;;6.30;99.90;;;;;;5044846;28;20056;-64
2023/11/03 02:27:46;;;;;;;4.90;1.80;;;6.30;99.90;;;;;;5046353;28;20064;-65
2023/11/03 02:30:18;;;;;;;4.70;1.60;;;6.40;99.90;;;;;;5049722;28;20080;-64
2023/11/03 02:32:50;;;;;;;4.60;1.33;;;6.40;99.90;;;;;;5034155;28;20055;-64
2023/11/03 02:35:21;;;;;;;3.60;1.02;;;6.40;99.90;;;;;;5046102;28;20505;-64
2023/11/03 02:37:53;;;;;;;2.30;1.08;;;6.40;99.90;;;;;;5044833;28;20037;-64
2023/11/03 02:40:25;;;;;;;3.72;1.33;;;6.40;99.90;;;;;;5026215;28;20045;-64
2023/11/03 02:42:57;;;;;;;2.28;1.13;;;6.50;99.90;;;;;;5051928;28;20108;-64
2023/11/03 02:45:29;;;;;;;3.20;1.00;;;6.50;99.90;;;;;;5041236;28;20508;-64
2023/11/03 02:48:01;;;;;;;4.80;1.25;;;6.50;99.90;;;;;;5037736;28;20057;-64
2023/11/03 02:50:28;;;;;;;4.65;1.83;;;6.60;99.90;;;;;;5030787;28;20056;-64
2023/11/03 02:53:00;;;;;;;7.07;1.52;;;6.50;99.90;;;;;;5034907;28;20532;-64
2023/11/03 02:55:31;;;;;;;6.30;1.40;;;6.50;99.90;;;;;;5002048;28;20058;-64
2023/11/03 02:58:03;;;;;;;2.88;1.30;;;6.50;99.90;;;;;;5015754;28;20533;-64
2023/11/03 03:00:36;;;;;;;2.35;0.98;;;6.50;99.90;;;;;;5046193;28;20046;-64
2023/11/03 03:03:07;;;;;;;5.88;1.35;;;6.50;99.90;;;;;;5031258;28;20137;-64
2023/11/03 03:05:39;;;;;;;2.53;1.15;;;6.50;99.90;;;;;;5046139;28;20077;-64
2023/11/03 03:08:11;;;;;;;3.85;1.50;;;6.50;99.90;;;;;;5048997;28;20584;-64
2023/11/03 03:10:43;;;;;;;4.13;1.13;;;6.50;99.90;;;;;;5011833;28;20048;-64
2023/11/03 03:13:10;;;;;;;4.00;1.20;;;6.50;99.90;;;;;;5035864;28;20077;-64
2023/11/03 03:15:37;;;;;;;3.90;1.17;;;6.40;99.90;;;;;;5039538;28;20130;-64
2023/11/03 03:18:09;;;;;;;3.88;1.15;;;6.40;99.90;;;;;;5038140;28;20049;-64
2023/11/03 03:20:40;;;;;;;3.85;1.17;;;6.40;99.90;;;;;;5046879;28;20069;-64
2023/11/03 03:23:12;;;;;;;4.45;1.25;;;6.30;99.90;;;;;;5034639;28;20080;-64
2023/11/03 03:25:44;;;;;;;4.22;1.25;;;6.30;99.90;;;;;;5045450;28;20060;-64
2023/11/03 03:28:16;;;;;;;3.75;1.08;;;6.40;99.90;;;;;;5035160;28;20144;-64
2023/11/03 03:30:48;;;;;;;5.07;1.23;;;6.40;99.90;;;;;;5029721;28;20050;-64
2023/11/03 03:33:20;;;;;;;3.85;0.98;;;6.40;99.90;;;;;;5030811;28;20067;-64
2023/11/03 03:35:52;;;;;;;3.35;0.90;;;6.40;99.90;;;;;;5021049;28;20606;-64
2023/11/03 03:38:24;;;;;;;2.10;0.80;;;6.30;99.90;;;;;;5035969;28;20041;-64
2023/11/03 03:40:56;;;;;;;1.90;0.90;;;6.40;99.90;;;;;;5035337;28;20115;-64
2023/11/03 03:43:28;;;;;;;2.78;0.80;;;6.30;99.90;;;;;;5019386;28;20057;-63
2023/11/03 03:46:00;;;;;;;2.25;1.00;;;6.40;99.90;;;;;;5039532;28;20566;-64
2023/11/03 03:48:32;;;;;;;3.13;0.93;;;6.40;99.90;;;;;;5035932;28;20060;-64
2023/11/03 03:51:04;;;;;;;2.28;0.77;;;6.40;99.90;;;;;;5046856;28;20154;-64
2023/11/03 03:53:30;;;;;;;3.53;1.55;;;6.30;99.90;;;;;;5052287;28;20140;-65
2023/11/03 03:56:03;;;;;;;3.13;0.82;;;6.30;99.90;;;;;;5018410;28;20052;-64
2023/11/03 03:58:38;;;;;;;6.70;1.10;;;6.30;99.90;;;;;;5045880;28;20413;-64
2023/11/03 04:01:10;;;;;;;3.33;0.98;;;6.30;99.90;;;;;;5042325;28;20044;-64
2023/11/03 04:03:37;;;;;;;4.05;1.10;;;6.30;99.90;;;;;;5031728;28;20044;-64
2023/11/03 04:06:12;;;;;;;1.63;0.70;;;6.40;99.90;;;;;;5045105;28;20064;-64
2023/11/03 04:08:43;;;;;;;2.88;0.75;;;6.30;99.90;;;;;;5033261;28;20045;-64
2023/11/03 04:11:15;;;;;;;4.03;1.08;;;6.30;99.90;;;;;;5036928;28;20510;-64
2023/11/03 04:13:42;;;;;;;1.88;0.88;;;6.40;99.90;;;;;;5035128;28;20440;-64
2023/11/03 04:16:14;;;;;;;2.28;1.13;;;6.30;99.90;;;;;;5040386;28;20120;-64
2023/11/03 04:18:46;;;;;;;4.18;0.88;;;6.30;99.90;;;;;;5020909;28;20161;-64
2023/11/03 04:21:13;;;;;;;1.85;1.02;;;6.40;99.90;;;;;;5038275;28;20055;-64
2023/11/03 04:23:44;;;;;;;2.67;0.88;;;6.30;99.90;;;;;;5042564;28;20036;-64
2023/11/03 04:26:16;;;;;;;2.97;0.90;;;6.40;99.90;;;;;;5035428;28;20049;-65
2023/11/03 04:28:48;;;;;;;1.48;0.70;;;6.30;99.90;;;;;;5046034;28;20049;-64
2023/11/03 04:31:20;;;;;;;1.50;1.10;;;6.30;99.90;;;;;;5031988;28;20044;-65
2023/11/03 04:33:47;;;;;;;2.58;0.70;;;6.30;99.90;;;;;;5041923;28;20128;-64
2023/11/03 04:36:19;;;;;;;3.60;0.93;;;6.30;99.90;;;;;;5025482;28;20529;-64
2023/11/03 04:38:46;;;;;;;3.28;0.98;;;6.30;99.90;;;;;;5032611;28;20042;-64
2023/11/03 04:41:18;;;;;;;4.55;1.30;;;6.30;99.90;;;;;;5033360;28;20037;-64
2023/11/03 04:43:50;;;;;;;1.40;0.82;;;6.20;99.90;;;;;;5036840;28;20396;-64
2023/11/03 04:46:22;;;;;;;4.00;1.27;;;6.20;99.90;;;;;;5039034;28;20041;-64
2023/11/03 04:48:54;;;;;;;1.70;0.70;;;6.20;99.90;;;;;;5038870;28;20049;-64
2023/11/03 04:51:26;;;;;;;1.50;1.05;;;6.20;99.90;;;;;;5035735;28;20059;-64
2023/11/03 04:53:58;;;;;;;3.33;1.33;;;6.20;99.90;;;;;;5047791;28;20428;-64
2023/11/03 04:56:30;;;;;;;2.30;1.10;;;6.20;99.90;;;;;;5048118;28;20124;-64
2023/11/03 04:59:02;;;;;;;6.47;2.40;;;6.20;99.90;;;;;;5047508;28;20051;-64
2023/11/03 05:01:34;;;;;;;2.63;0.98;;;6.20;99.90;;;;;;5051826;28;20041;-64
2023/11/03 05:04:06;;;;;;;3.72;0.93;;;6.10;99.90;;;;;;5052127;28;20069;-64
2023/11/03 05:06:38;;;;;;;2.25;0.90;;;6.10;99.90;;;;;;5052359;28;20060;-64
2023/11/03 05:09:06;;;;;;;3.80;0.93;;;6.20;99.90;;;;;;5049598;28;20044;-64
2023/11/03 05:11:38;;;;;;;3.83;1.27;;;6.10;99.90;;;;;;5048741;28;20033;-64
2023/11/03 05:14:10;;;;;;;2.83;0.90;;;6.20;99.90;;;;;;5036919;28;20045;-64
2023/11/03 05:16:41;;;;;;;3.05;1.02;;;6.20;99.90;;;;;;5049860;28;20052;-64
2023/11/03 05:19:09;;;;;;;3.50;1.25;;;6.10;99.90;;;;;;5042225;28;20029;-64
2023/11/03 05:21:40;;;;;;;2.55;1.13;;;6.10;99.90;;;;;;5040701;28;20052;-64
2023/11/03 05:24:13;;;;;;;2.22;1.00;;;6.10;99.90;;;;;;5047329;28;20037;-64
2023/11/03 05:26:45;;;;;;;5.05;1.40;;;6.10;99.90;;;;;;5047297;28;20562;-64
2023/11/03 05:29:22;;;;;;;2.50;1.35;;;6.10;99.90;;;;;;5049235;28;20033;-64
2023/11/03 05:31:54;;;;;;;1.98;1.00;;;6.00;99.90;;;;;;5048055;28;20405;-64
2023/11/03 05:34:25;;;;;;;3.70;1.10;;;6.00;99.90;;;;;;5046469;28;20045;-64
2023/11/03 05:36:52;;;;;;;2.38;0.93;;;6.10;99.90;;;;;;5036641;28;20116;-64
2023/11/03 05:39:19;;;;;;;2.55;1.00;;;6.10;99.90;;;;;;5033325;28;20037;-64
2023/11/03 05:41:46;;;;;;;2.60;1.25;;;6.00;99.90;;;;;;5038199;28;20040;-64
2023/11/03 05:44:18;;;;;;;4.22;1.35;;;6.00;99.90;;;;;;5046315;28;20041;-64
2023/11/03 05:46:50;;;;;;;1.88;1.20;;;6.00;99.90;;;;;;5038306;28;20498;-64
2023/11/03 05:49:22;;;;;;;3.95;1.20;;;6.00;99.90;;;;;;5044149;28;20124;-64
2023/11/03 05:51:54;;;;;;;3.42;1.83;;;6.00;99.90;;;;;;5042519;28;20042;-64
2023/11/03 05:54:21;;;;;;;4.55;1.23;;;6.00;99.90;;;;;;5040763;28;20037;-64
2023/11/03 05:56:52;;;;;;;4.18;1.20;;;6.00;99.90;;;;;;5053970;28;20145;-63
2023/11/03 05:59:24;;;;;;;2.72;1.20;;;5.90;99.90;;;;;;5038385;28;20126;-63
2023/11/03 06:01:56;;;;;;;5.07;1.30;;;6.00;99.90;;;;;;5035020;28;20044;-63
2023/11/03 06:04:28;;;;;;;1.95;1.10;;;6.10;99.90;;;;;;5033975;28;20033;-63
2023/11/03 06:07:06;;;;;;;4.97;1.40;;;6.00;99.90;;;;;;5051185;28;20033;-63
2023/11/03 06:09:38;;;;;;;4.40;1.25;;;6.00;99.90;;;;;;5050566;28;20064;-63
2023/11/03 06:12:09;;;;;;;2.90;1.80;;;6.10;99.90;;;;;;5045931;28;20493;-64
2023/11/03 06:14:41;;;;;;;2.13;1.02;;;6.10;99.90;;;;;;5049933;28;20050;-65
2023/11/03 06:17:08;;;;;;;3.20;1.25;;;6.10;99.90;;;;;;5042484;28;20141;-64
2023/11/03 06:19:40;;;;;;;2.47;1.42;;;6.00;99.90;;;;;;5040340;28;20068;-64
2023/11/03 06:22:07;;;;;;;10.18;3.30;;;6.00;99.90;;;;;;5032754;28;20049;-64
2023/11/03 06:24:39;;;;;;;2.33;1.27;;;6.10;99.90;;;;;;5040770;28;20053;-64
2023/11/03 06:27:11;;;;;;;2.65;0.95;;;6.10;99.90;;;;;;5048118;28;20106;-64
2023/11/03 06:29:43;;;;;;;3.60;1.10;;;6.00;99.90;;;;;;5037689;28;20083;-64
2023/11/03 06:32:15;;;;;;;2.67;1.30;;;6.10;99.90;;;;;;5043500;28;20061;-64
2023/11/03 06:34:47;;;;;;;3.08;1.23;;;6.10;99.90;;;;;;5036771;28;20515;-64
2023/11/03 06:37:19;;;;;;;3.40;1.40;;;6.10;99.90;;;;;;5029523;28;20034;-64
2023/11/03 06:39:53;;;;;;;3.65;1.33;;;6.10;99.90;;;;;;5042232;28;20064;-64
2023/11/03 06:42:25;;;;;;;4.13;1.40;;;6.10;99.90;;;;;;5047132;28;20037;-64
2023/11/03 06:44:57;;;;;;;2.90;1.45;;;6.10;99.90;;;;;;5030679;28;20120;-64
2023/11/03 06:47:29;;;;;;;4.18;1.40;;;6.10;99.90;;;;;;5038072;28;20048;-64
2023/11/03 06:50:01;;;;;;;4.30;1.52;;;6.10;99.90;;;;;;5046319;28;20574;-64
2023/11/03 06:52:33;;;;;;;2.55;1.50;;;6.10;99.90;;;;;;5038997;28;20037;-64
2023/11/03 06:55:07;;;;;;;4.80;1.90;;;6.10;99.90;;;;;;5032750;28;20048;-64
2023/11/03 06:57:41;;;;;;;5.35;2.35;;;6.10;99.90;;;;;;5037064;28;20049;-64
2023/11/03 07:00:13;;;;;;;;;;;6.10;99.90;;;;;;5037591;28;20041;-64
2023/11/03 07:02:45;;;;;;;5.38;1.88;;;6.10;99.90;;;;;;5032086;28;20004;-64
2023/11/03 07:05:13;;;;;;;5.38;1.38;;;6.10;99.90;;;;;;5033588;28;20096;-64
2023/11/03 07:07:45;;;;;;;4.43;1.90;;;6.10;99.90;;;;;;5035008;28;20045;-64
2023/11/03 07:10:12;;;;;;;3.95;1.73;;;6.10;99.90;;;;;;5048983;28;20142;-64
2023/11/03 07:12:45;;;;;;;2.60;1.85;;;6.10;99.90;;;;;;5047034;28;20049;-64
2023/11/03 07:15:17;;;;;;;4.82;2.47;;;6.10;99.90;;;;;;5045972;28;20501;-64
2023/11/03 07:17:49;;;;;;;3.33;2.05;;;6.10;99.90;;;;;;5045570;28;20041;-64
2023/11/03 07:20:22;;;;;;;4.70;2.03;;;6.10;99.90;;;;;;5041653;28;20033;-64
2023/11/03 07:22:54;;;;;;;6.50;1.95;;;6.10;99.90;;;;;;5037889;28;20045;-64
2023/11/03 07:25:26;;;;;;;4.15;1.80;;;6.10;99.90;;;;;;5040933;28;20827;-64
2023/11/03 07:27:58;;;;;;;4.13;1.67;;;6.10;99.90;;;;;;5040493;28;20052;-64
2023/11/03 07:30:25;;;;;;;4.53;1.70;;;6.10;99.90;;;;;;5039848;28;20033;-64
2023/11/03 07:32:57;;;;;;;6.07;2.40;;;6.10;99.90;;;;;;5035852;28;20524;-64
2023/11/03 07:35:29;;;;;;;4.68;1.67;;;6.10;99.90;;;;;;5031060;28;20056;-64
2023/11/03 07:37:56;;;;;;;5.13;1.63;;;6.20;99.90;;;;;;5032315;28;20041;-64
2023/11/03 07:40:23;;;;;;;2.40;1.42;;;6.20;99.90;;;;;;5030542;28;20033;-64
2023/11/03 07:42:55;;;;;;;5.97;2.00;;;6.20;99.90;;;;;;5031211;28;20055;-64
2023/11/03 07:45:28;;;;;;;3.15;1.65;;;6.20;99.90;;;;;;5026122;28;20045;-64
2023/11/03 07:48:01;;;;;;;4.18;1.83;;;6.10;99.90;;;;;;5026734;28;20501;-64
2023/11/03 07:50:27;;;;;;;4.40;1.80;;;6.20;99.90;;;;;;5039013;28;20516;-64
2023/11/03 07:52:59;;;;;;;3.05;1.73;;;6.10;99.90;;;;;;5033181;28;20041;-65
2023/11/03 07:55:26;;;;;;;5.80;1.92;;;6.20;99.90;;;;;;5031951;28;20047;-64
2023/11/03 07:57:58;;;;;;;2.05;1.52;;;6.20;99.90;;;;;;5040039;28;20045;-65
2023/11/03 08:00:30;;;;;;;7.82;2.42;;;6.20;99.90;;;;;;5022523;28;20521;-64
2023/11/03 08:02:57;;;;;;;4.90;1.77;;;6.10;99.90;;;;;;5033667;28;20035;-64
2023/11/03 08:05:29;;;;;;;5.10;2.03;;;6.20;99.90;;;;;;5025467;28;20069;-64
2023/11/03 08:08:02;;;;;;;2.80;1.67;;;6.20;99.90;;;;;;5048217;28;20057;-64
2023/11/03 08:10:33;;;;;;;3.67;2.00;;;6.20;99.90;;;;;;5022771;28;20041;-64
2023/11/03 08:13:05;;;;;;;9.25;2.70;;;6.20;99.90;;;;;;5023259;28;20052;-64
2023/11/03 08:15:38;;;;;;;5.75;1.80;;;6.30;99.90;;;;;;5026883;28;20597;-64
2023/11/03 08:18:11;;;;;;;6.10;1.88;;;6.30;99.90;;;;;;5014479;28;20068;-64
2023/11/03 08:20:43;;;;;;;3.50;1.85;;;6.30;99.90;;;;;;5032303;28;20383;-63
2023/11/03 08:23:15;;;;;;;6.75;1.60;;;6.30;99.90;;;;;;5041777;28;20409;-64
2023/11/03 08:25:47;;;;;;;2.97;1.50;;;6.30;99.90;;;;;;5028127;28;20052;-64
2023/11/03 08:28:19;;;;;;;3.53;1.40;;;6.30;99.90;;;;;;5029330;28;20599;-64
2023/11/03 08:30:52;;;;;;;4.75;1.38;;;6.40;99.90;;;;;;5026200;28;20101;-64
2023/11/03 08:33:25;;;;;;;2.13;1.20;;;6.40;99.90;;;;;;5028560;28;20037;-64
2023/11/03 08:35:53;;;;;;;3.72;1.02;;;6.40;99.90;;;;;;5027268;28;20129;-63
2023/11/03 08:38:25;;;;;;;6.63;1.83;;;6.50;99.90;;;;;;5030612;28;20060;-64
2023/11/03 08:40:56;;;;;;;2.60;1.10;;;6.50;99.90;;;;;;5027262;28;20041;-64
2023/11/03 08:43:28;;;;;;;4.00;1.20;;;6.50;99.90;;;;;;5030269;28;20038;-64
2023/11/03 08:45:55;;;;;;;3.10;1.35;;;6.50;99.90;;;;;;5030205;28;20041;-64
2023/11/03 08:48:27;;;;;;;4.78;1.33;;;6.50;99.90;;;;;;5046419;28;20490;-63
2023/11/03 08:50:59;;;;;;;2.33;0.98;;;6.50;99.90;;;;;;5028918;28;20041;-64
2023/11/03 08:53:31;;;;;;;4.45;1.25;;;6.50;99.90;;;;;;5029440;28;20132;-64
2023/11/03 08:56:03;;;;;;;5.68;1.65;;;6.60;99.90;;;;;;5030700;28;20065;-64
2023/11/03 08:58:35;;;;;;;4.45;1.30;;;6.60;99.90;;;;;;5032501;28;20172;-64
2023/11/03 09:01:03;;;;;;;2.67;1.13;;;6.60;99.90;;;;;;5031780;28;20038;-64
2023/11/03 09:03:35;;;;;;;6.30;1.20;;;6.60;99.90;;;;;;5034127;28;20033;-64
2023/11/03 09:06:07;;;;;;;3.35;1.75;;;6.60;99.90;;;;;;5031439;28;20287;-64
2023/11/03 09:08:39;;;;;;;14.65;6.40;;;6.70;99.90;;;;;;5042593;28;20042;-64
2023/11/03 09:11:11;;;;;;;37.47;18.80;;;6.70;99.90;;;;;;5029177;28;20046;-64
2023/11/03 09:13:53;;;;;;;10.95;6.10;;;6.70;99.90;;;;;;5029652;28;20045;-64
2023/11/03 09:16:25;;;;;;;5.43;1.35;;;6.70;99.90;;;;;;5028661;28;20052;-64
2023/11/03 09:18:59;;;;;;;24.42;11.98;;;6.70;99.90;;;;;;5025532;28;20592;-63
2023/11/03 09:21:30;;;;;;;8.63;3.22;;;6.70;99.90;;;;;;5031497;28;20048;-64
2023/11/03 09:24:03;;;;;;;5.03;2.17;;;6.80;99.90;;;;;;5030958;28;20121;-63
2023/11/03 09:26:35;;;;;;;39.63;17.07;;;6.80;99.90;;;;;;5042248;28;20088;-64
2023/11/03 09:29:02;;;;;;;104.28;50.88;;;6.80;99.90;;;;;;5024338;28;20056;-64
2023/11/03 09:31:34;;;;;;;18.35;9.77;;;6.80;99.90;;;;;;5012847;28;20046;-64
2023/11/03 09:34:06;;;;;;;33.15;16.83;;;6.90;99.90;;;;;;5029740;28;20046;-64
2023/11/03 09:36:38;;;;;;;88.65;37.90;;;6.90;99.90;;;;;;5045040;28;20087;-64
2023/11/03 09:39:13;;;;;;;68.15;29.17;;;6.90;99.90;;;;;;5049263;28;20408;-64
2023/11/03 09:42:05;;;;;;;266.35;106.50;;;7.00;99.90;;;;;;5031824;28;20041;-64
2023/11/03 09:44:37;;;;;;;58.58;25.95;;;7.00;99.90;;;;;;5042482;28;20036;-64
2023/11/03 09:47:14;;;;;;;29.80;15.98;;;7.10;99.90;;;;;;5033593;28;20541;-64
2023/11/03 09:49:43;;;;;;;13.00;6.05;;;7.10;99.90;;;;;;5064034;28;20048;-64
2023/11/03 09:52:18;;;;;;;7.28;4.15;;;7.10;99.90;;;;;;5047027;28;20482;-64
2023/11/03 09:54:54;;;;;;;7.43;2.05;;;7.00;99.90;;;;;;5044009;28;20047;-64
2023/11/03 09:57:26;;;;;;;4.40;1.50;;;7.00;99.90;;;;;;5039829;28;20060;-64
2023/11/03 09:59:54;;;;;;;5.10;1.17;;;7.00;99.90;;;;;;5044692;28;20037;-64
2023/11/03 10:02:25;;;;;;;3.63;1.00;;;7.00;99.90;;;;;;5038094;28;20057;-64
2023/11/03 10:04:52;;;;;;;4.40;2.17;;;6.90;99.90;;;;;;5038534;28;20053;-64
2023/11/03 10:07:24;;;;;;;10.55;2.80;;;7.00;99.90;;;;;;5037289;28;20033;-64
2023/11/03 10:09:56;;;;;;;5.88;1.80;;;7.10;99.90;;;;;;5034069;28;20049;-64
2023/11/03 10:12:24;;;;;;;8.90;1.67;;;7.10;99.90;;;;;;5054364;28;20064;-64
2023/11/03 10:14:51;;;;;;;6.38;1.90;;;7.10;99.90;;;;;;5033627;28;20383;-65
2023/11/03 10:17:24;;;;;;;4.15;1.20;;;7.10;99.90;;;;;;5033203;28;20426;-65
2023/11/03 10:19:55;;;;;;;4.15;1.05;;;7.10;99.90;;;;;;5031619;28;20025;-65
2023/11/03 10:22:23;;;;;;;7.20;1.20;;;7.00;99.90;;;;;;5037245;28;20103;-64
2023/11/03 10:24:56;;;;;;;3.25;1.40;;;7.00;99.90;;;;;;5042190;28;20482;-64
2023/11/03 10:27:23;;;;;;;5.90;1.20;;;7.00;99.90;;;;;;5041743;28;20100;-67
2023/11/03 10:29:53;;;;;;;4.05;1.25;;;7.00;99.90;;;;;;5036666;28;20115;-65
2023/11/03 10:32:25;;;;;;;1.52;0.98;;;7.00;99.90;;;;;;5041362;28;20043;-65
2023/11/03 10:34:57;;;;;;;5.20;1.33;;;7.00;99.90;;;;;;5036820;28;20045;-66
2023/11/03 10:37:31;;;;;;;3.45;1.30;;;7.00;99.90;;;;;;5034346;28;20041;-64
2023/11/03 10:40:10;;;;;;;3.20;1.08;;;7.00;99.90;;;;;;5032095;28;20041;-64
2023/11/03 10:42:50;;;;;;;6.43;1.40;;;7.00;99.90;;;;;;5048138;28;20099;-64
2023/11/03 10:45:20;;;;;;;5.47;1.85;;;7.00;99.90;;;;;;5031575;28;20091;-63
2023/11/03 10:47:57;;;;;;;3.60;1.08;;;7.10;99.90;;;;;;5032462;28;20045;-64
2023/11/03 10:50:35;;;;;;;3.30;1.20;;;7.10;99.90;;;;;;5029741;28;20588;-64
2023/11/03 10:53:15;;;;;;;6.20;1.70;;;7.20;99.90;;;;;;5033490;28;20049;-64
2023/11/03 10:55:54;;;;;;;5.05;1.13;;;7.20;99.90;;;;;;5028474;28;20120;-64
2023/11/03 10:58:26;;;;;;;8.35;1.88;;;7.20;99.90;;;;;;5026162;28;20053;-64
2023/11/03 11:01:07;;;;;;;5.50;1.20;;;7.20;99.90;;;;;;5042559;28;20033;-64
2023/11/03 11:04:11;;;;;;;10.35;1.98;;;7.20;99.90;;;;;;5036745;28;20037;-63
2023/11/03 11:06:58;;;;;;;8.68;1.60;;;7.30;99.90;;;;;;5025105;28;20045;-64
2023/11/03 11:09:37;;;;;;;4.88;1.35;;;7.40;99.90;;;;;;5036188;28;20049;-64
2023/11/03 11:12:10;;;;;;;4.07;1.40;;;7.40;99.90;;;;;;5037428;28;20061;-64
2023/11/03 11:14:43;;;;;;;3.58;1.02;;;7.50;99.90;;;;;;5030957;28;20033;-64
2023/11/03 11:17:23;;;;;;;4.70;1.02;;;7.40;99.90;;;;;;5041618;28;20053;-64
2023/11/03 11:19:58;;;;;;;4.43;1.77;;;7.40;99.90;;;;;;5050928;28;20052;-64
2023/11/03 11:22:33;;;;;;;4.72;1.45;;;7.50;99.90;;;;;;5027036;28;20046;-66
2023/11/03 11:25:07;;;;;;;4.10;1.15;;;7.50;99.90;;;;;;5036438;28;20037;-64
2023/11/03 11:27:38;;;;;;;2.92;1.55;;;7.60;99.90;;;;;;5036036;28;20040;-64
2023/11/03 11:30:15;;;;;;;5.18;1.52;;;7.60;99.90;;;;;;5037046;28;20064;-64
2023/11/03 11:32:51;;;;;;;3.65;1.35;;;7.50;99.90;;;;;;5037714;28;20046;-64
2023/11/03 11:35:25;;;;;;;6.05;1.30;;;7.60;99.90;;;;;;5036750;28;20124;-64
2023/11/03 11:37:57;;;;;;;7.20;1.73;;;7.70;99.90;;;;;;5035612;28;20041;-64
2023/11/03 11:40:29;;;;;;;7.85;1.35;;;7.60;99.90;;;;;;5034927;28;20494;-64
2023/11/03 11:42:56;;;;;;;5.63;1.85;;;7.70;99.90;;;;;;5034575;28;20033;-63
2023/11/03 11:45:30;;;;;;;3.57;1.30;;;7.60;99.90;;;;;;5046589;28;20053;-62
2023/11/03 11:48:06;;;;;;;4.38;0.93;;;7.60;99.90;;;;;;5033093;28;20303;-64
2023/11/03 11:50:41;;;;;;;2.60;0.98;;;7.60;99.90;;;;;;5033174;28;20049;-64
2023/11/03 11:53:14;;;;;;;6.00;1.30;;;7.60;99.90;;;;;;5035373;28;20048;-64
2023/11/03 11:55:43;;;;;;;4.60;1.10;;;7.50;99.90;;;;;;5046802;28;20051;-64
2023/11/03 11:58:18;;;;;;;8.02;1.38;;;7.50;99.90;;;;;;5041497;28;20059;-64
2023/11/03 12:00:50;;;;;;;5.43;1.17;;;7.50;99.90;;;;;;5035222;28;20507;-64
2023/11/03 12:03:17;;;;;;;6.68;1.45;;;7.50;99.90;;;;;;5040612;28;20065;-64
2023/11/03 12:05:50;;;;;;;4.38;1.15;;;7.60;99.90;;;;;;5035341;28;20044;-64
2023/11/03 12:08:24;;;;;;;4.60;1.80;;;7.60;99.90;;;;;;5039923;28;20042;-64
2023/11/03 12:10:56;;;;;;;3.92;0.98;;;7.60;99.90;;;;;;5048926;28;20064;-64
2023/11/03 12:13:28;;;;;;;5.20;1.25;;;7.60;99.90;;;;;;5050030;28;20072;-64
2023/11/03 12:15:55;;;;;;;2.28;1.45;;;7.50;99.90;;;;;;5051574;28;20029;-64
2023/11/03 12:18:22;;;;;;;7.95;1.40;;;7.50;99.90;;;;;;5054194;28;20471;-64
2023/11/03 12:21:02;;;;;;;8.13;1.60;;;7.40;99.90;;;;;;5035026;28;20047;-64
2023/11/03 12:23:35;;;;;;;3.00;1.48;;;7.50;99.90;;;;;;5036131;28;20037;-64
2023/11/03 12:26:08;;;;;;;5.32;1.20;;;7.50;99.90;;;;;;5036793;28;20030;-64
2023/11/03 12:28:40;;;;;;;3.25;1.55;;;7.60;99.90;;;;;;5040958;28;20038;-64
2023/11/03 12:31:13;;;;;;;4.80;1.10;;;7.70;99.90;;;;;;5039322;28;20551;-64
2023/11/03 12:33:44;;;;;;;2.65;0.93;;;7.60;99.90;;;;;;5038122;28;20033;-63
2023/11/03 12:36:14;;;;;;;6.43;1.33;;;7.60;99.90;;;;;;5040029;28;20561;-63
2023/11/03 12:38:47;;;;;;;5.03;2.05;;;7.60;99.90;;;;;;5040974;28;20048;-64
2023/11/03 12:41:19;;;;;;;2.00;1.30;;;7.60;99.90;;;;;;5040614;28;20041;-64
2023/11/03 12:43:54;;;;;;;3.50;1.10;;;7.50;99.90;;;;;;5047871;28;20120;-64
2023/11/03 12:46:25;;;;;;;2.25;1.00;;;7.60;99.90;;;;;;5035676;28;20041;-64
2023/11/03 12:49:07;;;;;;;5.70;1.00;;;7.60;99.90;;;;;;5047363;28;20051;-64
2023/11/03 12:51:42;;;;;;;4.25;1.42;;;7.60;99.90;;;;;;5033381;28;20043;-64
2023/11/03 12:54:18;;;;;;;1.05;0.88;;;7.70;99.90;;;;;;5043536;28;20044;-64
2023/11/03 12:56:50;;;;;;;4.88;1.15;;;7.70;99.90;;;;;;5048517;28;20050;-64
2023/11/03 12:59:22;;;;;;;5.25;2.28;;;7.80;99.90;;;;;;5037725;28;20037;-64
2023/11/03 13:01:54;;;;;;;4.10;1.30;;;7.70;99.90;;;;;;5050790;28;20081;-64
2023/11/03 13:04:26;;;;;;;3.80;0.90;;;7.70;99.90;;;;;;5042683;28;20044;-64
2023/11/03 13:06:58;;;;;;;3.58;1.40;;;7.70;99.90;;;;;;5040785;28;20052;-64
2023/11/03 13:09:30;;;;;;;3.53;1.30;;;7.80;99.90;;;;;;5039860;28;20044;-64
2023/11/03 13:12:04;;;;;;;1.45;1.02;;;7.80;99.90;;;;;;5037373;28;20050;-64
2023/11/03 13:14:36;;;;;;;4.57;0.90;;;7.90;99.90;;;;;;5036522;28;20069;-64
2023/11/03 13:17:10;;;;;;;6.18;1.63;;;7.90;99.90;;;;;;5038178;28;20140;-64
2023/11/03 13:19:41;;;;;;;5.97;1.50;;;8.00;99.90;;;;;;5047955;28;20045;-64